sensor_id;sensor_type;location;lat;lon;timestamp;temperature;humidity
23495;DHT22;26107;50.832;2.950;2023-10-08T00:03:47;17.60;99.90
23495;DHT22;26107;50.832;2.950;2023-10-08T00:18:51;16.80;99.90
23495;DHT22;26107;50.832;2.950;2023-10-08T00:33:52;17.10;99.90
23495;DHT22;26107;50.832;2.950;2023-10-08T00:48:55;17.70;99.90
23495;DHT22;26107;50.832;2.950;2023-10-08T01:03:56;17.00;99.90
23495;DHT22;26107;50.832;2.950;2023-10-08T01:18:59;16.90;99.90
23495;DHT22;26107;50.832;2.950;2023-10-08T01:34:00;16.80;99.90
23495;DHT22;26107;50.832;2.950;2023-10-08T01:49:04;16.40;99.90
23495;DHT22;26107;50.832;2.950;2023-10-08T02:04:09;15.30;99.90
23495;DHT22;26107;50.832;2.950;2023-10-08T02:19:15;16.70;99.90
23495;DHT22;26107;50.832;2.950;2023-10-08T02:34:18;16.90;99.90
23495;DHT22;26107;50.832;2.950;2023-10-08T02:49:20;17.00;99.90
23495;DHT22;26107;50.832;2.950;2023-10-08T03:04:21;17.20;99.90
23495;DHT22;26107;50.832;2.950;2023-10-08T03:19:23;17.50;99.90
23495;DHT22;26107;50.832;2.950;2023-10-08T03:34:23;17.60;99.90
23495;DHT22;26107;50.832;2.950;2023-10-08T03:49:28;17.60;99.90
23495;DHT22;26107;50.832;2.950;2023-10-08T04:04:31;17.70;99.90
23495;DHT22;26107;50.832;2.950;2023-10-08T04:19:49;17.60;99.90
23495;DHT22;26107;50.832;2.950;2023-10-08T04:34:52;17.60;99.90
23495;DHT22;26107;50.832;2.950;2023-10-08T04:49:56;17.40;99.90
23495;DHT22;26107;50.832;2.950;2023-10-08T05:04:57;17.40;99.90
23495;DHT22;26107;50.832;2.950;2023-10-08T05:20:18;17.20;99.90
23495;DHT22;26107;50.832;2.950;2023-10-08T05:35:39;17.20;99.90
23495;DHT22;26107;50.832;2.950;2023-10-08T05:50:42;16.60;99.90
23495;DHT22;26107;50.832;2.950;2023-10-08T06:05:55;16.20;99.90
23495;DHT22;26107;50.832;2.950;2023-10-08T06:21:16;16.20;99.90
23495;DHT22;26107;50.832;2.950;2023-10-08T06:36:19;16.20;99.90
23495;DHT22;26107;50.832;2.950;2023-10-08T06:51:24;15.00;99.90
23495;DHT22;26107;50.832;2.950;2023-10-08T07:06:28;15.40;99.90
23495;DHT22;26107;50.832;2.950;2023-10-08T07:21:34;15.90;99.90
23495;DHT22;26107;50.832;2.950;2023-10-08T07:36:45;15.90;99.90
23495;DHT22;26107;50.832;2.950;2023-10-08T07:51:49;16.00;99.90
23495;DHT22;26107;50.832;2.950;2023-10-08T08:06:53;16.10;99.90
23495;DHT22;26107;50.832;2.950;2023-10-08T08:21:56;16.20;99.90
23495;DHT22;26107;50.832;2.950;2023-10-08T08:37:03;16.70;99.90
23495;DHT22;26107;50.832;2.950;2023-10-08T08:52:03;17.50;99.90
23495;DHT22;26107;50.832;2.950;2023-10-08T09:07:04;18.10;99.90
23495;DHT22;26107;50.832;2.950;2023-10-08T09:22:09;18.30;99.90
23495;DHT22;26107;50.832;2.950;2023-10-08T09:37:11;18.40;99.90
23495;DHT22;26107;50.832;2.950;2023-10-08T09:52:12;18.90;99.90
23495;DHT22;26107;50.832;2.950;2023-10-08T10:07:15;19.30;99.90
23495;DHT22;26107;50.832;2.950;2023-10-08T10:22:34;19.80;99.90
23495;DHT22;26107;50.832;2.950;2023-10-08T10:37:35;19.90;99.90
23495;DHT22;26107;50.832;2.950;2023-10-08T10:52:43;20.60;99.90
23495;DHT22;26107;50.832;2.950;2023-10-08T11:07:57;20.80;99.90
23495;DHT22;26107;50.832;2.950;2023-10-08T11:23:05;21.30;99.90
23495;DHT22;26107;50.832;2.950;2023-10-08T11:38:26;21.10;99.90
23495;DHT22;26107;50.832;2.950;2023-10-08T11:53:27;21.60;99.90
23495;DHT22;26107;50.832;2.950;2023-10-08T12:08:29;22.20;99.90
23495;DHT22;26107;50.832;2.950;2023-10-08T12:23:29;22.10;99.90
23495;DHT22;26107;50.832;2.950;2023-10-08T12:38:33;22.80;99.90
23495;DHT22;26107;50.832;2.950;2023-10-08T12:53:39;22.80;99.90
23495;DHT22;26107;50.832;2.950;2023-10-08T13:08:39;23.70;99.90
23495;DHT22;26107;50.832;2.950;2023-10-08T13:23:40;24.00;99.90
23495;DHT22;26107;50.832;2.950;2023-10-08T13:38:41;24.00;99.90
23495;DHT22;26107;50.832;2.950;2023-10-08T13:53:41;24.70;99.90
23495;DHT22;26107;50.832;2.950;2023-10-08T14:08:45;24.80;99.90
23495;DHT22;26107;50.832;2.950;2023-10-08T14:23:51;26.90;99.90
23495;DHT22;26107;50.832;2.950;2023-10-08T14:38:59;29.20;99.90
23495;DHT22;26107;50.832;2.950;2023-10-08T14:54:21;31.80;99.90
23495;DHT22;26107;50.832;2.950;2023-10-08T15:09:22;30.70;99.90
23495;DHT22;26107;50.832;2.950;2023-10-08T15:24:24;29.10;99.90
23495;DHT22;26107;50.832;2.950;2023-10-08T15:39:27;26.90;99.90
23495;DHT22;26107;50.832;2.950;2023-10-08T15:54:30;26.80;99.90
23495;DHT22;26107;50.832;2.950;2023-10-08T16:09:30;27.40;99.90
23495;DHT22;26107;50.832;2.950;2023-10-08T16:24:33;26.90;99.90
23495;DHT22;26107;50.832;2.950;2023-10-08T16:39:34;27.00;99.90
23495;DHT22;26107;50.832;2.950;2023-10-08T16:54:35;26.10;99.90
23495;DHT22;26107;50.832;2.950;2023-10-08T17:09:38;25.50;99.90
23495;DHT22;26107;50.832;2.950;2023-10-08T17:24:41;23.60;99.90
23495;DHT22;26107;50.832;2.950;2023-10-08T17:39:45;23.10;99.90
23495;DHT22;26107;50.832;2.950;2023-10-08T17:54:45;22.70;99.90
23495;DHT22;26107;50.832;2.950;2023-10-08T18:09:48;22.40;99.90
23495;DHT22;26107;50.832;2.950;2023-10-08T18:24:48;22.30;99.90
23495;DHT22;26107;50.832;2.950;2023-10-08T18:39:52;22.30;99.90
23495;DHT22;26107;50.832;2.950;2023-10-08T18:54:55;21.60;99.90
23495;DHT22;26107;50.832;2.950;2023-10-08T19:09:58;21.00;99.90
23495;DHT22;26107;50.832;2.950;2023-10-08T19:25:00;20.80;99.90
23495;DHT22;26107;50.832;2.950;2023-10-08T19:40:05;21.10;99.90
23495;DHT22;26107;50.832;2.950;2023-10-08T19:55:10;21.00;99.90
23495;DHT22;26107;50.832;2.950;2023-10-08T20:10:11;20.60;99.90
23495;DHT22;26107;50.832;2.950;2023-10-08T20:25:15;20.60;99.90
23495;DHT22;26107;50.832;2.950;2023-10-08T20:40:18;20.60;99.90
23495;DHT22;26107;50.832;2.950;2023-10-08T20:55:25;20.30;99.90
23495;DHT22;26107;50.832;2.950;2023-10-08T21:10:34;20.30;99.90
23495;DHT22;26107;50.832;2.950;2023-10-08T21:25:37;19.80;99.90
23495;DHT22;26107;50.832;2.950;2023-10-08T21:40:43;20.10;99.90
23495;DHT22;26107;50.832;2.950;2023-10-08T21:55:44;20.00;99.90
23495;DHT22;26107;50.832;2.950;2023-10-08T22:10:45;19.80;99.90
23495;DHT22;26107;50.832;2.950;2023-10-08T22:25:46;19.30;99.90
23495;DHT22;26107;50.832;2.950;2023-10-08T22:40:47;19.50;99.90
23495;DHT22;26107;50.832;2.950;2023-10-08T22:56:00;19.70;99.90
23495;DHT22;26107;50.832;2.950;2023-10-08T23:11:00;19.50;99.90
23495;DHT22;26107;50.832;2.950;2023-10-08T23:26:07;19.20;99.90
23495;DHT22;26107;50.832;2.950;2023-10-08T23:41:10;19.00;99.90
23495;DHT22;26107;50.832;2.950;2023-10-08T23:56:17;18.90;99.90
